createdAt,value
2022-11-09T00:02:06.023Z,97410.88
2022-11-09T00:04:36.170Z,97413.91
2022-11-09T00:07:06.291Z,97411.38
2022-11-09T00:09:36.457Z,97419.75
2022-11-09T00:12:07.587Z,97414.66
2022-11-09T00:14:38.868Z,97412.63
2022-11-09T00:17:11.805Z,97410.38
2022-11-09T00:19:41.910Z,97413.16
2022-11-09T00:22:12.454Z,97424.31
2022-11-09T00:24:42.542Z,97414.13
2022-11-09T00:27:17.350Z,97430.88
2022-11-09T00:29:47.761Z,97420.00
2022-11-09T00:32:27.620Z,97414.91
2022-11-09T00:34:58.094Z,97410.88
2022-11-09T00:37:28.243Z,97414.91
2022-11-09T00:39:58.295Z,97399.22
2022-11-09T00:42:30.560Z,97398.94
2022-11-09T00:45:00.773Z,97402.78
2022-11-09T00:47:33.478Z,97407.34
2022-11-09T00:50:03.654Z,97408.09
2022-11-09T00:52:33.730Z,97398.47
2022-11-09T00:55:03.944Z,97411.66
2022-11-09T00:57:34.527Z,97406.06
2022-11-09T01:00:04.591Z,97410.13
2022-11-09T01:02:37.221Z,97417.22
2022-11-09T01:05:08.804Z,97413.41
2022-11-09T01:07:40.189Z,97415.19
2022-11-09T01:10:11.753Z,97421.53
2022-11-09T01:12:42.003Z,97419.22
2022-11-09T01:15:13.136Z,97418.47
2022-11-09T01:17:46.138Z,97419.50
2022-11-09T01:20:16.579Z,97416.47
2022-11-09T01:22:47.054Z,97409.84
2022-11-09T01:25:17.285Z,97409.13
2022-11-09T01:27:47.679Z,97409.59
2022-11-09T01:30:17.892Z,97410.09
2022-11-09T01:32:50.541Z,97409.31
2022-11-09T01:35:20.730Z,97410.06
2022-11-09T01:37:50.955Z,97404.25
2022-11-09T01:40:21.286Z,97406.28
2022-11-09T01:42:51.389Z,97405.50
2022-11-09T01:45:28.441Z,97410.06
2022-11-09T01:48:08.126Z,97396.59
2022-11-09T01:50:44.129Z,97396.88
2022-11-09T01:53:22.331Z,97398.41
2022-11-09T01:55:56.341Z,97391.03
2022-11-09T01:58:31.265Z,97387.50
2022-11-09T02:01:05.224Z,97385.50
2022-11-09T02:03:44.661Z,97386.81
2022-11-09T02:06:19.545Z,97383.75
2022-11-09T02:08:51.580Z,97378.66
2022-11-09T02:11:25.187Z,97366.75
2022-11-09T02:14:01.160Z,97368.56
2022-11-09T02:16:32.376Z,97372.59
2022-11-09T02:19:05.162Z,97368.00
2022-11-09T02:21:38.012Z,97366.28
2022-11-09T02:24:09.557Z,97374.66
2022-11-09T02:26:47.475Z,97373.13
2022-11-09T02:29:21.929Z,97374.66
2022-11-09T02:31:57.864Z,97374.38
2022-11-09T02:34:28.757Z,97375.91
2022-11-09T02:37:03.559Z,97366.78
2022-11-09T02:39:35.448Z,97367.31
2022-11-09T02:42:11.472Z,97363.53
2022-11-09T02:44:48.262Z,97359.72
2022-11-09T02:47:18.506Z,97362.50
2022-11-09T02:49:50.534Z,97354.66
2022-11-09T02:52:23.498Z,97347.31
2022-11-09T02:54:55.169Z,97356.69
2022-11-09T02:57:25.258Z,97351.09
2022-11-09T02:59:55.375Z,97346.78
2022-11-09T03:02:25.730Z,97342.94
2022-11-09T03:04:55.844Z,97333.81
2022-11-09T03:07:28.642Z,97327.47
2022-11-09T03:09:59.632Z,97336.84
2022-11-09T03:12:33.365Z,97326.47
2022-11-09T03:15:15.338Z,97334.56
2022-11-09T03:17:48.637Z,97337.63
2022-11-09T03:20:20.588Z,97341.94
2022-11-09T03:22:54.571Z,97343.19
2022-11-09T03:25:24.742Z,97345.72
2022-11-09T03:28:00.741Z,97349.78
2022-11-09T03:30:31.506Z,97353.84
2022-11-09T03:33:02.916Z,97362.44
2022-11-09T03:35:34.059Z,97365.03
2022-11-09T03:38:07.748Z,97366.56
2022-11-09T03:40:39.170Z,97370.38
2022-11-09T03:43:09.719Z,97369.09
2022-11-09T03:45:39.998Z,97366.06
2022-11-09T03:48:10.235Z,97364.31
2022-11-09T03:50:41.203Z,97358.19
2022-11-09T03:53:14.043Z,97367.59
2022-11-09T03:55:44.554Z,97373.66
2022-11-09T03:58:15.283Z,97378.97
2022-11-09T04:00:45.515Z,97392.41
2022-11-09T04:03:15.756Z,97394.69
2022-11-09T04:05:45.829Z,97380.75
2022-11-09T04:08:18.546Z,97383.53
2022-11-09T04:10:48.725Z,97380.75
2022-11-09T04:13:19.237Z,97378.72
2022-11-09T04:15:49.493Z,97372.38
2022-11-09T04:18:20.287Z,97378.72
2022-11-09T04:20:50.422Z,97375.91
2022-11-09T04:23:23.259Z,97378.19
2022-11-09T04:25:53.601Z,97371.84
2022-11-09T04:28:23.785Z,97366.25
2022-11-09T04:30:53.803Z,97367.03
2022-11-09T04:33:24.079Z,97370.56
2022-11-09T04:35:54.210Z,97379.94
2022-11-09T04:38:26.891Z,97380.22
2022-11-09T04:40:56.985Z,97379.97
2022-11-09T04:43:27.006Z,97372.09
2022-11-09T04:45:57.326Z,97366.53
2022-11-09T04:48:27.462Z,97389.88
2022-11-09T04:51:03.429Z,97387.31
2022-11-09T04:53:37.478Z,97391.63
2022-11-09T04:56:09.294Z,97391.91
2022-11-09T04:58:39.391Z,97390.41
2022-11-09T05:01:12.736Z,97393.19
2022-11-09T05:03:43.728Z,97383.56
2022-11-09T05:06:26.697Z,97389.38
2022-11-09T05:08:59.963Z,97387.63
2022-11-09T05:11:30.373Z,97395.97
2022-11-09T05:14:00.629Z,97398.78
2022-11-09T05:16:32.481Z,97396.00
2022-11-09T05:19:02.733Z,97402.56
2022-11-09T05:21:32.902Z,97391.69
2022-11-09T05:24:03.163Z,97398.28
2022-11-09T05:26:36.009Z,97401.56
2022-11-09T05:29:09.895Z,97398.78
2022-11-09T05:31:41.984Z,97393.97
2022-11-09T05:34:16.080Z,97394.97
2022-11-09T05:36:46.251Z,97389.41
2022-11-09T05:39:18.942Z,97383.06
2022-11-09T05:41:49.077Z,97399.75
2022-11-09T05:44:19.131Z,97408.13
2022-11-09T05:46:49.194Z,97411.66
2022-11-09T05:49:19.389Z,97406.84
2022-11-09T05:51:49.546Z,97408.13
2022-11-09T05:54:22.250Z,97410.69
2022-11-09T05:56:52.291Z,97412.22
2022-11-09T05:59:22.443Z,97413.97
2022-11-09T06:01:52.633Z,97423.59
2022-11-09T06:04:22.789Z,97410.69
2022-11-09T06:06:52.919Z,97409.66
2022-11-09T06:09:25.636Z,97404.34
2022-11-09T06:11:55.744Z,97407.38
2022-11-09T06:14:25.875Z,97418.50
2022-11-09T06:16:56.110Z,97415.72
2022-11-09T06:19:26.375Z,97413.22
2022-11-09T06:21:56.375Z,97421.31
2022-11-09T06:24:29.112Z,97410.66
2022-11-09T06:27:00.152Z,97407.63
2022-11-09T06:29:30.287Z,97404.59
2022-11-09T06:32:00.342Z,97404.09
2022-11-09T06:34:30.783Z,97407.91
2022-11-09T06:37:01.011Z,97418.28
2022-11-09T06:39:33.748Z,97422.06
2022-11-09T06:42:04.199Z,97415.22
2022-11-09T06:44:34.291Z,97423.84
2022-11-09T06:47:04.334Z,97424.09
2022-11-09T06:49:34.483Z,97423.84
2022-11-09T06:52:04.770Z,97425.59
2022-11-09T06:54:37.500Z,97442.59
2022-11-09T06:57:07.784Z,97439.81
2022-11-09T06:59:40.724Z,97449.69
2022-11-09T07:02:12.287Z,97445.13
2022-11-09T07:04:42.441Z,97453.47
2022-11-09T07:07:13.171Z,97458.53
2022-11-09T07:09:46.014Z,97453.47
2022-11-09T07:12:16.257Z,97443.63
2022-11-09T07:14:46.483Z,97452.19
2022-11-09T07:17:16.641Z,97468.41
2022-11-09T07:19:46.873Z,97473.22
2022-11-09T07:22:17.165Z,97472.22
2022-11-09T07:24:49.957Z,97465.13
2022-11-09T07:27:23.611Z,97453.22
2022-11-09T07:29:57.516Z,97462.81
2022-11-09T07:32:53.790Z,97465.13
2022-11-09T07:35:17.975Z,97471.97
2022-11-09T07:37:48.097Z,97472.72
2022-11-09T07:40:20.946Z,97476.53
2022-11-09T07:42:51.100Z,97472.22
2022-11-09T07:45:21.225Z,97479.81
2022-11-09T07:47:51.301Z,97475.50
2022-11-09T07:50:21.595Z,97472.97
2022-11-09T07:52:51.719Z,97476.25
2022-11-09T07:55:24.422Z,97468.16
2022-11-09T07:57:59.351Z,97473.47
2022-11-09T08:00:31.768Z,97460.03
2022-11-09T08:03:02.184Z,97463.59
2022-11-09T08:05:32.856Z,97475.28
2022-11-09T08:08:06.457Z,97467.41
2022-11-09T08:10:40.535Z,97471.44
2022-11-09T08:13:14.648Z,97465.09
2022-11-09T08:15:46.263Z,97469.16
2022-11-09T08:18:20.092Z,97481.34
2022-11-09T08:20:50.661Z,97482.88
2022-11-09T08:23:23.254Z,97478.78
2022-11-09T08:25:56.047Z,97483.38
2022-11-09T08:28:26.781Z,97494.00
2022-11-09T08:31:02.669Z,97485.66
2022-11-09T08:33:37.016Z,97486.66
2022-11-09T08:36:13.274Z,97491.72
2022-11-09T08:38:44.698Z,97480.59
2022-11-09T08:41:17.630Z,97484.91
2022-11-09T08:43:47.786Z,97479.56
2022-11-09T08:46:17.910Z,97480.84
2022-11-09T08:48:48.164Z,97480.09
2022-11-09T08:51:18.282Z,97482.63
2022-11-09T08:53:48.609Z,97473.72
2022-11-09T08:56:21.758Z,97474.00
2022-11-09T08:58:51.976Z,97471.19
2022-11-09T09:01:22.175Z,97476.78
2022-11-09T09:03:52.358Z,97470.97
2022-11-09T09:06:25.689Z,97472.47
2022-11-09T09:08:58.353Z,97471.72
2022-11-09T09:11:31.149Z,97470.69
2022-11-09T09:14:01.361Z,97468.16
2022-11-09T09:16:31.904Z,97468.41
2022-11-09T09:19:02.122Z,97462.81
2022-11-09T09:21:32.282Z,97458.53
2022-11-09T09:24:02.308Z,97447.88
2022-11-09T09:26:35.260Z,97451.16
2022-11-09T09:29:05.613Z,97458.25
2022-11-09T09:31:35.830Z,97452.66
2022-11-09T09:34:06.218Z,97448.31
2022-11-09T09:36:36.305Z,97452.59
2022-11-09T09:39:06.994Z,97462.97
2022-11-09T09:41:49.504Z,97471.88
2022-11-09T09:44:28.290Z,97464.50
2022-11-09T09:47:10.822Z,97484.53
2022-11-09T09:49:49.306Z,97492.66
2022-11-09T09:52:29.457Z,97477.19
2022-11-09T09:55:07.156Z,97482.50
2022-11-09T09:57:42.411Z,97484.97
2022-11-09T10:00:28.728Z,97483.19
2022-11-09T10:02:59.070Z,97480.22
2022-11-09T10:05:44.617Z,97468.00
2022-11-09T10:08:24.946Z,97469.03
2022-11-09T10:11:12.558Z,97471.81
2022-11-09T10:14:04.335Z,97458.66
2022-11-09T10:16:44.286Z,97460.66
2022-11-09T10:19:37.844Z,97462.22
2022-11-09T10:22:18.005Z,97467.03
2022-11-09T10:25:20.797Z,97465.75
2022-11-09T10:27:54.895Z,97465.78
2022-11-09T10:30:30.728Z,97459.22
2022-11-09T10:33:24.012Z,97457.19
2022-11-09T10:36:07.909Z,97451.31
2022-11-09T10:38:45.259Z,97452.09
2022-11-09T10:41:42.157Z,97431.19
2022-11-09T10:44:30.818Z,97420.50
2022-11-09T10:47:22.712Z,97423.69
2022-11-09T10:50:25.840Z,97428.63
2022-11-09T10:53:19.719Z,97421.91
2022-11-09T10:56:20.840Z,97428.09
2022-11-09T10:59:45.337Z,97424.25
2022-11-09T11:02:50.167Z,97418.06
2022-11-09T11:05:39.980Z,97400.47
2022-11-09T11:08:37.357Z,97410.84
2022-11-09T11:11:34.952Z,97400.84
2022-11-09T11:14:32.292Z,97396.63
2022-11-09T11:17:26.597Z,97377.09
2022-11-09T11:20:35.399Z,97395.00
2022-11-09T11:23:26.693Z,97381.16
2022-11-09T11:26:43.704Z,97376.69
2022-11-09T11:29:46.760Z,97389.97
2022-11-09T11:32:35.677Z,97380.84
2022-11-09T11:35:43.289Z,97392.75
2022-11-09T11:38:39.039Z,97372.81
2022-11-09T11:42:11.565Z,97380.16
2022-11-09T11:45:39.534Z,97374.84
2022-11-09T11:48:56.888Z,97376.50
2022-11-09T11:51:59.432Z,97365.22
2022-11-09T11:55:21.450Z,97354.25
2022-11-09T11:58:33.455Z,97344.38
2022-11-09T12:01:42.251Z,97341.72
2022-11-09T12:05:00.753Z,97357.22
2022-11-09T12:08:02.247Z,97353.16
2022-11-09T12:10:59.860Z,97388.00
2022-11-09T12:14:06.317Z,97381.28
2022-11-09T12:17:07.842Z,97381.97
2022-11-09T12:20:25.663Z,97378.00
2022-11-09T12:23:41.363Z,97376.00
2022-11-09T12:26:47.735Z,97383.66
2022-11-09T12:29:55.783Z,97387.78
2022-11-09T12:32:53.563Z,97390.13
2022-11-09T12:35:50.257Z,97383.78
2022-11-09T12:38:55.950Z,97394.38
2022-11-09T12:41:46.610Z,97383.44
2022-11-09T12:44:40.094Z,97382.34
2022-11-09T12:47:37.829Z,97391.44
2022-11-09T12:50:29.340Z,97385.00
2022-11-09T12:53:20.047Z,97391.88
2022-11-09T12:56:22.168Z,97389.78
2022-11-09T12:59:25.314Z,97393.38
2022-11-09T13:02:31.880Z,97392.25
2022-11-09T13:05:40.425Z,97396.25
2022-11-09T13:08:32.959Z,97398.38
2022-11-09T13:11:31.206Z,97395.44
2022-11-09T13:14:40.763Z,97391.03
2022-11-09T13:18:04.195Z,97398.31
2022-11-09T13:20:58.489Z,97389.47
2022-11-09T13:24:00.844Z,97400.91
2022-11-09T13:27:05.752Z,97405.34
2022-11-09T13:29:56.782Z,97404.34
2022-11-09T13:33:21.842Z,97395.78
2022-11-09T13:36:22.357Z,97394.28
2022-11-09T13:39:31.108Z,97393.34
2022-11-09T13:42:35.330Z,97403.44
2022-11-09T13:45:36.389Z,97404.72
2022-11-09T13:48:43.074Z,97400.38
2022-11-09T13:51:47.983Z,97407.94
2022-11-09T13:54:38.165Z,97394.84
2022-11-09T13:57:31.394Z,97403.44
2022-11-09T14:00:24.588Z,97402.91
2022-11-09T14:03:25.051Z,97409.88
2022-11-09T14:06:16.453Z,97409.63
2022-11-09T14:09:07.277Z,97420.16
2022-11-09T14:12:21.097Z,97426.06
2022-11-09T14:15:36.219Z,97424.19
2022-11-09T14:18:40.126Z,97418.66
2022-11-09T14:21:49.140Z,97422.78
2022-11-09T14:24:41.505Z,97416.69
2022-11-09T14:27:30.375Z,97433.34
2022-11-09T14:30:26.560Z,97437.13
2022-11-09T14:33:25.459Z,97435.63
2022-11-09T14:36:16.564Z,97438.69
2022-11-09T14:39:10.067Z,97439.59
2022-11-09T14:42:00.233Z,97458.03
2022-11-09T14:44:50.471Z,97451.25
2022-11-09T14:47:41.812Z,97449.06
2022-11-09T14:50:34.731Z,97451.59
2022-11-09T14:53:27.117Z,97450.38
2022-11-09T14:56:20.087Z,97456.06
2022-11-09T14:59:10.782Z,97455.59
2022-11-09T15:02:06.758Z,97457.91
2022-11-09T15:05:03.736Z,97457.69
2022-11-09T15:07:52.710Z,97456.97
2022-11-09T15:10:42.143Z,97456.78
2022-11-09T15:13:36.050Z,97466.25
2022-11-09T15:16:27.856Z,97477.19
2022-11-09T15:19:31.914Z,97471.91
2022-11-09T15:22:59.312Z,97482.06
2022-11-09T15:25:58.684Z,97486.41
2022-11-09T15:28:50.788Z,97481.59
2022-11-09T15:31:40.292Z,97488.19
2022-11-09T15:34:34.639Z,97503.38
2022-11-09T15:37:28.704Z,97513.56
2022-11-09T15:40:22.792Z,97507.72
2022-11-09T15:43:11.923Z,97519.59
2022-11-09T15:46:03.792Z,97518.09
2022-11-09T15:48:52.871Z,97518.09
2022-11-09T15:51:42.019Z,97523.66
2022-11-09T15:54:32.385Z,97532.03
2022-11-09T15:57:24.442Z,97527.22
2022-11-09T16:00:20.746Z,97527.22
2022-11-09T16:03:10.797Z,97531.00
2022-11-09T16:05:59.752Z,97528.97
2022-11-09T16:08:51.221Z,97533.28
2022-11-09T16:11:39.871Z,97533.53
2022-11-09T16:14:34.817Z,97530.50
2022-11-09T16:17:23.605Z,97532.25
2022-11-09T16:20:14.504Z,97526.69
2022-11-09T16:23:03.356Z,97527.72
2022-11-09T16:25:52.054Z,97516.78
2022-11-09T16:28:41.791Z,97523.66
2022-11-09T16:31:51.888Z,97522.34
2022-11-09T16:34:40.788Z,97519.06
2022-11-09T16:37:31.703Z,97522.88
2022-11-09T16:40:21.115Z,97526.16
2022-11-09T16:43:10.509Z,97532.50
2022-11-09T16:45:59.565Z,97531.75
2022-11-09T16:48:50.888Z,97536.81
2022-11-09T16:51:40.019Z,97539.06
2022-11-09T16:54:29.264Z,97545.94
2022-11-09T16:57:18.701Z,97552.00
2022-11-09T17:00:10.494Z,97554.28
2022-11-09T17:02:59.646Z,97565.94
2022-11-09T17:05:51.256Z,97554.78
2022-11-09T17:08:40.014Z,97556.56
2022-11-09T17:11:28.891Z,97562.13
2022-11-09T17:14:17.823Z,97567.47
2022-11-09T17:17:07.113Z,97578.34
2022-11-09T17:19:56.304Z,97569.00
2022-11-09T17:22:48.642Z,97565.97
2022-11-09T17:25:38.175Z,97576.81
2022-11-09T17:28:28.668Z,97576.84
2022-11-09T17:31:21.185Z,97582.44
2022-11-09T17:34:12.376Z,97578.38
2022-11-09T17:37:04.715Z,97585.19
2022-11-09T17:39:57.060Z,97592.28
2022-11-09T17:42:46.295Z,97586.44
2022-11-09T17:45:38.121Z,97591.00
2022-11-09T17:48:27.508Z,97589.72
2022-11-09T17:51:18.654Z,97589.72
2022-11-09T17:54:08.345Z,97589.50
2022-11-09T17:57:01.172Z,97585.19
2022-11-09T17:59:50.409Z,97582.94
2022-11-09T18:02:39.833Z,97595.09
2022-11-09T18:05:29.231Z,97590.78
2022-11-09T18:08:18.784Z,97592.31
2022-11-09T18:11:09.124Z,97598.91
2022-11-09T18:14:01.205Z,97602.19
2022-11-09T18:16:50.208Z,97599.69
2022-11-09T18:19:39.280Z,97606.25
2022-11-09T18:22:28.158Z,97614.38
2022-11-09T18:25:17.486Z,97610.56
2022-11-09T18:28:06.295Z,97616.13
2022-11-09T18:31:03.658Z,97622.44
2022-11-09T18:33:53.579Z,97617.84
2022-11-09T18:36:42.499Z,97623.16
2022-11-09T18:39:32.798Z,97620.38
2022-11-09T18:42:21.811Z,97616.59
2022-11-09T18:45:13.437Z,97621.66
2022-11-09T18:48:04.279Z,97630.75
2022-11-09T18:50:54.528Z,97623.66
2022-11-09T18:53:46.372Z,97634.06
2022-11-09T18:56:35.260Z,97633.25
2022-11-09T18:59:24.466Z,97633.00
2022-11-09T19:02:16.237Z,97644.13
2022-11-09T19:05:09.487Z,97639.84
2022-11-09T19:07:59.541Z,97638.31
2022-11-09T19:10:48.815Z,97639.09
2022-11-09T19:13:37.900Z,97647.91
2022-11-09T19:16:28.817Z,97647.41
2022-11-09T19:19:19.122Z,97652.25
2022-11-09T19:22:19.244Z,97658.81
2022-11-09T19:25:09.677Z,97657.28
2022-11-09T19:27:58.894Z,97657.03
2022-11-09T19:30:47.887Z,97648.94
2022-11-09T19:33:36.697Z,97655.38
2022-11-09T19:36:30.959Z,97650.50
2022-11-09T19:39:22.822Z,97655.06
2022-11-09T19:42:11.832Z,97659.66
2022-11-09T19:45:00.777Z,97671.09
2022-11-09T19:47:51.916Z,97669.56
2022-11-09T19:50:40.657Z,97668.56
2022-11-09T19:53:30.462Z,97674.34
2022-11-09T19:56:22.579Z,97678.13
2022-11-09T19:59:16.718Z,97681.06
2022-11-09T20:02:06.075Z,97680.84
2022-11-09T20:04:55.046Z,97682.31
2022-11-09T20:07:44.270Z,97684.34
2022-11-09T20:10:33.450Z,97680.03
2022-11-09T20:13:25.997Z,97678.47
2022-11-09T20:16:15.261Z,97687.28
2022-11-09T20:19:05.193Z,97691.09
2022-11-09T20:21:54.250Z,97690.84
2022-11-09T20:24:43.496Z,97688.75
2022-11-09T20:27:32.912Z,97691.56
2022-11-09T20:30:24.551Z,97698.91
2022-11-09T20:33:13.741Z,97698.69
2022-11-09T20:36:02.479Z,97701.50
2022-11-09T20:38:52.009Z,97701.72
2022-11-09T20:41:40.691Z,97705.25
2022-11-09T20:44:29.682Z,97707.00
2022-11-09T20:47:35.777Z,97723.41
2022-11-09T20:50:30.914Z,97716.06
2022-11-09T20:53:19.825Z,97722.13
2022-11-09T20:56:09.623Z,97730.66
2022-11-09T20:58:58.360Z,97730.94
2022-11-09T21:01:47.191Z,97727.56
2022-11-09T21:04:38.612Z,97723.69
2022-11-09T21:07:27.753Z,97724.06
2022-11-09T21:10:16.577Z,97734.06
2022-11-09T21:13:05.789Z,97744.03
2022-11-09T21:15:55.081Z,97766.31
2022-11-09T21:18:44.495Z,97770.75
2022-11-09T21:21:36.794Z,97776.09
2022-11-09T21:24:38.049Z,97781.22
2022-11-09T21:27:41.184Z,97778.88
2022-11-09T21:30:34.936Z,97790.28
2022-11-09T21:33:23.942Z,97792.38
2022-11-09T21:36:15.214Z,97789.09
2022-11-09T21:39:07.453Z,97783.28
2022-11-09T21:41:56.433Z,97768.94
2022-11-09T21:44:45.321Z,97754.47
2022-11-09T21:47:34.819Z,97756.78
2022-11-09T21:50:24.037Z,97774.81
2022-11-09T21:53:12.906Z,97784.72
2022-11-09T21:56:05.299Z,97772.53
2022-11-09T21:58:54.481Z,97774.13
2022-11-09T22:01:43.915Z,97771.66
2022-11-09T22:04:33.234Z,97785.63
2022-11-09T22:07:22.087Z,97777.56
2022-11-09T22:10:12.740Z,97774.72
2022-11-09T22:13:16.800Z,97786.91
2022-11-09T22:16:10.690Z,97778.31
2022-11-09T22:19:11.983Z,97789.22
2022-11-09T22:22:00.735Z,97804.59
2022-11-09T22:24:49.624Z,97796.00
2022-11-09T22:27:38.876Z,97802.81
2022-11-09T22:30:30.568Z,97797.09
2022-11-09T22:33:25.892Z,97798.19
2022-11-09T22:36:18.744Z,97797.69
2022-11-09T22:39:07.866Z,97792.56
2022-11-09T22:41:56.778Z,97794.78
2022-11-09T22:44:45.732Z,97800.16
2022-11-09T22:47:37.449Z,97805.97
2022-11-09T22:50:26.177Z,97814.31
2022-11-09T22:53:15.091Z,97818.25
2022-11-09T22:56:06.253Z,97825.13
2022-11-09T22:58:55.980Z,97820.25
2022-11-09T23:01:45.202Z,97827.38
2022-11-09T23:04:37.212Z,97829.50
2022-11-09T23:07:26.302Z,97836.72
2022-11-09T23:10:15.042Z,97849.72
2022-11-09T23:13:05.238Z,97849.66
2022-11-09T23:15:59.011Z,97843.13
2022-11-09T23:18:58.017Z,97846.06
2022-11-09T23:21:49.797Z,97853.16
2022-11-09T23:24:51.130Z,97843.50
2022-11-09T23:27:39.800Z,97843.91
2022-11-09T23:30:29.609Z,97851.59
2022-11-09T23:33:18.867Z,97858.19
2022-11-09T23:36:11.937Z,97860.31
2022-11-09T23:39:04.004Z,97861.84
2022-11-09T23:41:52.780Z,97875.72
2022-11-09T23:44:41.550Z,97879.00
2022-11-09T23:47:30.172Z,97873.22
2022-11-09T23:50:19.346Z,97877.44
2022-11-09T23:53:08.779Z,97880.31
2022-11-09T23:56:03.937Z,97890.28
2022-11-09T23:58:52.715Z,97896.97
